Terminal Aerodrome Forecast
Issued by NWS Pittsburgh, PA

Current Version | Previous Version | Graphics & Text | Print | Product List | Glossary On
Versions: 1 2 3 4 5 6 7 8 9 10 11 12 13 14 15 16 17 18 19 20 21 22 23 24 25 26 27 28
000
FTUS41 KPBZ 251317 AAA
TAFPIT
TAF AMD
KPIT 251317Z 2513/2618 21008KT P6SM SCT015 BKN120
      TEMPO 2513/2514 BKN009
     FM251500 22007KT P6SM SCT035
     FM260000 25005KT P6SM VCTS BKN035CB
     FM260400 22006KT P6SM VCSH BKN025
     FM261500 VRB05KT P6SM SCT250=

USA.gov is the U.S. government's official web portal to all federal, state and local government web resources and services.